sensor_id;sensor_type;location;lat;lon;timestamp;pressure;altitude;pressure_sealevel;temperature
64488;BMP280;50864;45.050;39.014;2022-11-11T00:01:01;102489.28;;;4.97
64488;BMP280;50864;45.050;39.014;2022-11-11T00:03:45;102497.06;;;4.98
64488;BMP280;50864;45.050;39.014;2022-11-11T00:06:29;102497.84;;;4.92
64488;BMP280;50864;45.050;39.014;2022-11-11T00:09:13;102495.63;;;4.89
64488;BMP280;50864;45.050;39.014;2022-11-11T00:11:57;102490.50;;;4.87
64488;BMP280;50864;45.050;39.014;2022-11-11T00:14:42;102489.69;;;4.87
64488;BMP280;50864;45.050;39.014;2022-11-11T00:17:26;102492.16;;;4.89
64488;BMP280;50864;45.050;39.014;2022-11-11T00:20:29;102497.44;;;4.89
64488;BMP280;50864;45.050;39.014;2022-11-11T00:23:32;102493.97;;;4.88
64488;BMP280;50864;45.050;39.014;2022-11-11T00:26:35;102493.16;;;4.87
64488;BMP280;50864;45.050;39.014;2022-11-11T00:29:19;102483.75;;;4.85
64488;BMP280;50864;45.050;39.014;2022-11-11T00:32:04;102489.88;;;4.85
64488;BMP280;50864;45.050;39.014;2022-11-11T00:35:09;102493.53;;;4.84
64488;BMP280;50864;45.050;39.014;2022-11-11T00:38:13;102488.41;;;4.76
64488;BMP280;50864;45.050;39.014;2022-11-11T00:41:17;102487.56;;;4.69
64488;BMP280;50864;45.050;39.014;2022-11-11T00:44:01;102488.16;;;4.65
64488;BMP280;50864;45.050;39.014;2022-11-11T00:46:45;102491.81;;;4.64
64488;BMP280;50864;45.050;39.014;2022-11-11T00:49:49;102478.75;;;4.62
64488;BMP280;50864;45.050;39.014;2022-11-11T00:52:52;102486.53;;;4.64
64488;BMP280;50864;45.050;39.014;2022-11-11T00:55:36;102481.84;;;4.66
64488;BMP280;50864;45.050;39.014;2022-11-11T00:58:20;102480.63;;;4.68
64488;BMP280;50864;45.050;39.014;2022-11-11T01:01:05;102482.25;;;4.69
64488;BMP280;50864;45.050;39.014;2022-11-11T01:03:49;102481.06;;;4.72
64488;BMP280;50864;45.050;39.014;2022-11-11T01:06:34;102478.41;;;4.72
64488;BMP280;50864;45.050;39.014;2022-11-11T01:09:18;102484.94;;;4.76
64488;BMP280;50864;45.050;39.014;2022-11-11T01:12:02;102481.66;;;4.74
64488;BMP280;50864;45.050;39.014;2022-11-11T01:14:47;102478.22;;;4.73
64488;BMP280;50864;45.050;39.014;2022-11-11T01:17:31;102474.94;;;4.71
64488;BMP280;50864;45.050;39.014;2022-11-11T01:20:16;102475.13;;;4.70
64488;BMP280;50864;45.050;39.014;2022-11-11T01:22:59;102472.09;;;4.73
64488;BMP280;50864;45.050;39.014;2022-11-11T01:25:43;102481.47;;;4.75
64488;BMP280;50864;45.050;39.014;2022-11-11T01:28:29;102478.22;;;4.73
64488;BMP280;50864;45.050;39.014;2022-11-11T01:31:14;102481.66;;;4.74
64488;BMP280;50864;45.050;39.014;2022-11-11T01:33:58;102479.81;;;4.74
64488;BMP280;50864;45.050;39.014;2022-11-11T01:36:42;102479.81;;;4.74
64488;BMP280;50864;45.050;39.014;2022-11-11T01:39:26;102486.53;;;4.70
64488;BMP280;50864;45.050;39.014;2022-11-11T01:42:10;102490.22;;;4.69
64488;BMP280;50864;45.050;39.014;2022-11-11T01:44:54;102487.56;;;4.69
64488;BMP280;50864;45.050;39.014;2022-11-11T01:47:38;102479.59;;;4.69
64488;BMP280;50864;45.050;39.014;2022-11-11T01:50:41;102477.97;;;4.68
64488;BMP280;50864;45.050;39.014;2022-11-11T01:53:25;102476.53;;;4.66
64488;BMP280;50864;45.050;39.014;2022-11-11T01:56:09;102475.72;;;4.65
64488;BMP280;50864;45.050;39.014;2022-11-11T01:58:54;102475.09;;;4.63
64488;BMP280;50864;45.050;39.014;2022-11-11T02:01:39;102468.16;;;4.62
64488;BMP280;50864;45.050;39.014;2022-11-11T02:04:24;102476.09;;;4.62
64488;BMP280;50864;45.050;39.014;2022-11-11T02:07:28;102476.28;;;4.61
64488;BMP280;50864;45.050;39.014;2022-11-11T02:10:13;102468.34;;;4.61
64488;BMP280;50864;45.050;39.014;2022-11-11T02:12:57;102473.63;;;4.61
64488;BMP280;50864;45.050;39.014;2022-11-11T02:16:01;102477.13;;;4.61
64488;BMP280;50864;45.050;39.014;2022-11-11T02:18:45;102477.75;;;4.63
64488;BMP280;50864;45.050;39.014;2022-11-11T02:21:34;102471.25;;;4.66
64488;BMP280;50864;45.050;39.014;2022-11-11T02:24:19;102480.00;;;4.66
64488;BMP280;50864;45.050;39.014;2022-11-11T02:27:04;102477.34;;;4.66
64488;BMP280;50864;45.050;39.014;2022-11-11T02:29:51;102468.78;;;4.64
64488;BMP280;50864;45.050;39.014;2022-11-11T02:32:36;102473.44;;;4.62
64488;BMP280;50864;45.050;39.014;2022-11-11T02:35:28;102471.00;;;4.61
64488;BMP280;50864;45.050;39.014;2022-11-11T02:38:13;102463.84;;;4.61
64488;BMP280;50864;45.050;39.014;2022-11-11T02:40:57;102471.63;;;4.63
64488;BMP280;50864;45.050;39.014;2022-11-11T02:44:00;102472.44;;;4.63
64488;BMP280;50864;45.050;39.014;2022-11-11T02:46:44;102464.47;;;4.63
64488;BMP280;50864;45.050;39.014;2022-11-11T02:49:28;102465.13;;;4.65
64488;BMP280;50864;45.050;39.014;2022-11-11T02:52:13;102459.00;;;4.65
64488;BMP280;50864;45.050;39.014;2022-11-11T02:54:57;102464.09;;;4.66
64488;BMP280;50864;45.050;39.014;2022-11-11T02:57:41;102444.50;;;4.67
64488;BMP280;50864;45.050;39.014;2022-11-11T03:00:25;102456.75;;;4.68
64488;BMP280;50864;45.050;39.014;2022-11-11T03:03:09;102455.72;;;4.69
64488;BMP280;50864;45.050;39.014;2022-11-11T03:05:54;102448.59;;;4.70
64488;BMP280;50864;45.050;39.014;2022-11-11T03:08:38;102459.41;;;4.68
64488;BMP280;50864;45.050;39.014;2022-11-11T03:11:22;102458.38;;;4.69
64488;BMP280;50864;45.050;39.014;2022-11-11T03:14:16;102462.03;;;4.68
64488;BMP280;50864;45.050;39.014;2022-11-11T03:17:00;102456.75;;;4.68
64488;BMP280;50864;45.050;39.014;2022-11-11T03:20:03;102455.91;;;4.68
64488;BMP280;50864;45.050;39.014;2022-11-11T03:23:07;102458.56;;;4.68
64488;BMP280;50864;45.050;39.014;2022-11-11T03:25:52;102461.44;;;4.66
64488;BMP280;50864;45.050;39.014;2022-11-11T03:28:36;102459.41;;;4.68
64488;BMP280;50864;45.050;39.014;2022-11-11T03:31:20;102459.00;;;4.71
64488;BMP280;50864;45.050;39.014;2022-11-11T03:34:04;102465.31;;;4.70
64488;BMP280;50864;45.050;39.014;2022-11-11T03:37:04;102460.22;;;4.69
64488;BMP280;50864;45.050;39.014;2022-11-11T03:40:08;102456.56;;;4.70
64488;BMP280;50864;45.050;39.014;2022-11-11T03:42:52;102452.25;;;4.69
64488;BMP280;50864;45.050;39.014;2022-11-11T03:45:36;102456.16;;;4.66
64488;BMP280;50864;45.050;39.014;2022-11-11T03:48:21;102453.25;;;4.61
64488;BMP280;50864;45.050;39.014;2022-11-11T03:51:05;102458.56;;;4.61
64488;BMP280;50864;45.050;39.014;2022-11-11T03:53:49;102464.69;;;4.62
64488;BMP280;50864;45.050;39.014;2022-11-11T03:56:33;102463.84;;;4.61
64488;BMP280;50864;45.050;39.014;2022-11-11T03:59:17;102463.84;;;4.61
64488;BMP280;50864;45.050;39.014;2022-11-11T04:02:01;102455.72;;;4.63
64488;BMP280;50864;45.050;39.014;2022-11-11T04:05:05;102458.38;;;4.63
64488;BMP280;50864;45.050;39.014;2022-11-11T04:08:12;102463.84;;;4.61
64488;BMP280;50864;45.050;39.014;2022-11-11T04:11:23;102468.78;;;4.64
64488;BMP280;50864;45.050;39.014;2022-11-11T04:14:08;102469.78;;;4.63
64488;BMP280;50864;45.050;39.014;2022-11-11T04:17:12;102478.94;;;4.61
64488;BMP280;50864;45.050;39.014;2022-11-11T04:19:56;102469.72;;;4.57
64488;BMP280;50864;45.050;39.014;2022-11-11T04:22:59;102467.72;;;4.52
64488;BMP280;50864;45.050;39.014;2022-11-11T04:25:43;102471.38;;;4.51
64488;BMP280;50864;45.050;39.014;2022-11-11T04:28:35;102475.03;;;4.50
64488;BMP280;50864;45.050;39.014;2022-11-11T04:31:38;102479.53;;;4.50
64488;BMP280;50864;45.050;39.014;2022-11-11T04:34:43;102482.16;;;4.50
64488;BMP280;50864;45.050;39.014;2022-11-11T04:37:30;102481.97;;;4.51
64488;BMP280;50864;45.050;39.014;2022-11-11T04:40:14;102474.84;;;4.52
64488;BMP280;50864;45.050;39.014;2022-11-11T04:43:18;102481.34;;;4.49
64488;BMP280;50864;45.050;39.014;2022-11-11T04:46:02;102486.47;;;4.51
64488;BMP280;50864;45.050;39.014;2022-11-11T04:48:46;102488.72;;;4.54
64488;BMP280;50864;45.050;39.014;2022-11-11T04:51:30;102488.91;;;4.52
64488;BMP280;50864;45.050;39.014;2022-11-11T04:54:34;102496.69;;;4.54
64488;BMP280;50864;45.050;39.014;2022-11-11T04:57:42;102489.94;;;4.51
64488;BMP280;50864;45.050;39.014;2022-11-11T05:00:26;102486.09;;;4.54
64488;BMP280;50864;45.050;39.014;2022-11-11T05:03:11;102491.94;;;4.56
64488;BMP280;50864;45.050;39.014;2022-11-11T05:06:07;102491.16;;;4.55
64488;BMP280;50864;45.050;39.014;2022-11-11T05:09:10;102493.81;;;4.55
64488;BMP280;50864;45.050;39.014;2022-11-11T05:11:55;102501.34;;;4.58
64488;BMP280;50864;45.050;39.014;2022-11-11T05:14:39;102500.97;;;4.61
64488;BMP280;50864;45.050;39.014;2022-11-11T05:17:53;102497.87;;;4.58
64488;BMP280;50864;45.050;39.014;2022-11-11T05:20:55;102504.00;;;4.58
64488;BMP280;50864;45.050;39.014;2022-11-11T05:23:58;102511.59;;;4.61
64488;BMP280;50864;45.050;39.014;2022-11-11T05:27:14;102512.84;;;4.65
64488;BMP280;50864;45.050;39.014;2022-11-11T05:29:59;102509.56;;;4.63
64488;BMP280;50864;45.050;39.014;2022-11-11T05:32:43;102513.22;;;4.62
64488;BMP280;50864;45.050;39.014;2022-11-11T05:35:27;102516.72;;;4.69
64488;BMP280;50864;45.050;39.014;2022-11-11T05:38:12;102512.06;;;4.71
64488;BMP280;50864;45.050;39.014;2022-11-11T05:41:06;102513.25;;;4.69
64488;BMP280;50864;45.050;39.014;2022-11-11T05:43:50;102508.16;;;4.67
64488;BMP280;50864;45.050;39.014;2022-11-11T05:46:34;102506.31;;;4.68
64488;BMP280;50864;45.050;39.014;2022-11-11T05:49:18;102505.50;;;4.67
64488;BMP280;50864;45.050;39.014;2022-11-11T05:52:03;102512.84;;;4.65
64488;BMP280;50864;45.050;39.014;2022-11-11T05:54:47;102516.91;;;4.68
64488;BMP280;50864;45.050;39.014;2022-11-11T05:57:31;102525.94;;;4.73
64488;BMP280;50864;45.050;39.014;2022-11-11T06:00:15;102512.28;;;4.76
64488;BMP280;50864;45.050;39.014;2022-11-11T06:03:03;102518.81;;;4.80
64488;BMP280;50864;45.050;39.014;2022-11-11T06:05:49;102512.94;;;4.85
64488;BMP280;50864;45.050;39.014;2022-11-11T06:08:33;102517.84;;;4.88
64488;BMP280;50864;45.050;39.014;2022-11-11T06:11:17;102518.69;;;4.89
64488;BMP280;50864;45.050;39.014;2022-11-11T06:14:01;102514.19;;;4.89
64488;BMP280;50864;45.050;39.014;2022-11-11T06:16:45;102520.69;;;4.93
64488;BMP280;50864;45.050;39.014;2022-11-11T06:19:30;102518.66;;;4.95
64488;BMP280;50864;45.050;39.014;2022-11-11T06:22:14;102524.41;;;4.92
64488;BMP280;50864;45.050;39.014;2022-11-11T06:25:18;102518.28;;;4.92
64488;BMP280;50864;45.050;39.014;2022-11-11T06:28:21;102531.13;;;4.95
64488;BMP280;50864;45.050;39.014;2022-11-11T06:31:05;102533.59;;;4.96
64488;BMP280;50864;45.050;39.014;2022-11-11T06:33:51;102530.34;;;5.01
64488;BMP280;50864;45.050;39.014;2022-11-11T06:36:35;102525.69;;;5.03
64488;BMP280;50864;45.050;39.014;2022-11-11T06:39:19;102534.47;;;5.03
64488;BMP280;50864;45.050;39.014;2022-11-11T06:42:03;102531.81;;;5.03
64488;BMP280;50864;45.050;39.014;2022-11-11T06:44:47;102539.75;;;5.03
64488;BMP280;50864;45.050;39.014;2022-11-11T06:47:31;102530.16;;;5.09
64488;BMP280;50864;45.050;39.014;2022-11-11T06:50:16;102530.84;;;5.24
64488;BMP280;50864;45.050;39.014;2022-11-11T06:53:07;102524.09;;;5.28
64488;BMP280;50864;45.050;39.014;2022-11-11T06:55:51;102534.13;;;5.33
64488;BMP280;50864;45.050;39.014;2022-11-11T06:58:36;102532.69;;;5.30
64488;BMP280;50864;45.050;39.014;2022-11-11T07:01:20;102530.25;;;5.35
64488;BMP280;50864;45.050;39.014;2022-11-11T07:04:04;102525.19;;;5.40
64488;BMP280;50864;45.050;39.014;2022-11-11T07:06:52;102527.41;;;5.43
64488;BMP280;50864;45.050;39.014;2022-11-11T07:09:36;102538.03;;;5.43
64488;BMP280;50864;45.050;39.014;2022-11-11T07:12:20;102532.72;;;5.50
64488;BMP280;50864;45.050;39.014;2022-11-11T07:15:05;102542.13;;;5.59
64488;BMP280;50864;45.050;39.014;2022-11-11T07:17:49;102539.31;;;5.67
64488;BMP280;50864;45.050;39.014;2022-11-11T07:20:33;102545.25;;;5.69
64488;BMP280;50864;45.050;39.014;2022-11-11T07:23:17;102542.16;;;5.72
64488;BMP280;50864;45.050;39.014;2022-11-11T07:26:01;102540.94;;;5.68
64488;BMP280;50864;45.050;39.014;2022-11-11T07:28:45;102544.63;;;5.67
64488;BMP280;50864;45.050;39.014;2022-11-11T07:31:31;102547.72;;;5.71
64488;BMP280;50864;45.050;39.014;2022-11-11T07:34:15;102539.91;;;5.76
64488;BMP280;50864;45.050;39.014;2022-11-11T07:36:59;102553.81;;;5.84
64488;BMP280;50864;45.050;39.014;2022-11-11T07:39:43;102545.66;;;5.86
64488;BMP280;50864;45.050;39.014;2022-11-11T07:42:27;102549.53;;;5.90
64488;BMP280;50864;45.050;39.014;2022-11-11T07:45:11;102549.13;;;5.93
64488;BMP280;50864;45.050;39.014;2022-11-11T07:47:56;102555.47;;;5.92
64488;BMP280;50864;45.050;39.014;2022-11-11T07:50:40;102553.44;;;6.00
64488;BMP280;50864;45.050;39.014;2022-11-11T07:53:24;102551.38;;;6.02
64488;BMP280;50864;45.050;39.014;2022-11-11T07:56:09;102558.56;;;6.02
64488;BMP280;50864;45.050;39.014;2022-11-11T07:58:53;102558.75;;;6.00
64488;BMP280;50864;45.050;39.014;2022-11-11T08:01:37;102550.16;;;5.98
64488;BMP280;50864;45.050;39.014;2022-11-11T08:04:21;102546.47;;;5.93
64488;BMP280;50864;45.050;39.014;2022-11-11T08:07:05;102547.09;;;5.95
64488;BMP280;50864;45.050;39.014;2022-11-11T08:09:50;102545.84;;;5.97
64488;BMP280;50864;45.050;39.014;2022-11-11T08:12:34;102540.53;;;6.04
64488;BMP280;50864;45.050;39.014;2022-11-11T08:15:37;102545.03;;;6.10
64488;BMP280;50864;45.050;39.014;2022-11-11T08:18:22;102553.81;;;6.11
64488;BMP280;50864;45.050;39.014;2022-11-11T08:21:06;102542.59;;;6.15
64488;BMP280;50864;45.050;39.014;2022-11-11T08:23:51;102537.88;;;6.17
64488;BMP280;50864;45.050;39.014;2022-11-11T08:26:35;102532.53;;;6.24
64488;BMP280;50864;45.050;39.014;2022-11-11T08:29:19;102540.72;;;6.29
64488;BMP280;50864;45.050;39.014;2022-11-11T08:32:04;102539.28;;;6.26
64488;BMP280;50864;45.050;39.014;2022-11-11T08:34:47;102533.34;;;6.24
64488;BMP280;50864;45.050;39.014;2022-11-11T08:37:32;102526.00;;;6.26
64488;BMP280;50864;45.050;39.014;2022-11-11T08:40:16;102525.37;;;6.31
64488;BMP280;50864;45.050;39.014;2022-11-11T08:43:00;102524.78;;;6.29
64488;BMP280;50864;45.050;39.014;2022-11-11T08:45:44;102523.31;;;6.39
64488;BMP280;50864;45.050;39.014;2022-11-11T08:48:31;102521.87;;;6.43
64488;BMP280;50864;45.050;39.014;2022-11-11T08:51:16;102515.75;;;6.43
64488;BMP280;50864;45.050;39.014;2022-11-11T08:54:00;102512.84;;;6.51
64488;BMP280;50864;45.050;39.014;2022-11-11T08:56:44;102514.06;;;6.55
64488;BMP280;50864;45.050;39.014;2022-11-11T08:59:28;102510.34;;;6.63
64488;BMP280;50864;45.050;39.014;2022-11-11T09:02:12;102520.72;;;6.77
64488;BMP280;50864;45.050;39.014;2022-11-11T09:04:57;102520.88;;;6.89
64488;BMP280;50864;45.050;39.014;2022-11-11T09:07:41;102512.25;;;7.00
64488;BMP280;50864;45.050;39.014;2022-11-11T09:10:25;102510.38;;;7.07
64488;BMP280;50864;45.050;39.014;2022-11-11T09:13:09;102523.25;;;7.10
64488;BMP280;50864;45.050;39.014;2022-11-11T09:15:53;102524.25;;;7.09
64488;BMP280;50864;45.050;39.014;2022-11-11T09:18:37;102518.34;;;7.07
64488;BMP280;50864;45.050;39.014;2022-11-11T09:21:21;102513.81;;;7.08
64488;BMP280;50864;45.050;39.014;2022-11-11T09:24:07;102518.94;;;7.09
64488;BMP280;50864;45.050;39.014;2022-11-11T09:26:51;102512.75;;;7.15
64488;BMP280;50864;45.050;39.014;2022-11-11T09:29:35;102514.19;;;7.18
64488;BMP280;50864;45.050;39.014;2022-11-11T09:32:20;102519.69;;;7.23
64488;BMP280;50864;45.050;39.014;2022-11-11T09:35:04;102508.53;;;7.33
64488;BMP280;50864;45.050;39.014;2022-11-11T09:37:55;102516.12;;;7.36
64488;BMP280;50864;45.050;39.014;2022-11-11T09:40:48;102515.50;;;7.34
64488;BMP280;50864;45.050;39.014;2022-11-11T09:43:35;102516.31;;;7.34
64488;BMP280;50864;45.050;39.014;2022-11-11T09:52:11;102519.19;;;7.39
64488;BMP280;50864;45.050;39.014;2022-11-11T09:55:40;102519.66;;;7.30
64488;BMP280;50864;45.050;39.014;2022-11-11T09:58:05;102516.88;;;7.11
64488;BMP280;50864;45.050;39.014;2022-11-11T10:00:58;102509.94;;;7.10
64488;BMP280;50864;45.050;39.014;2022-11-11T10:03:49;102513.94;;;7.19
64488;BMP280;50864;45.050;39.014;2022-11-11T10:06:41;102502.19;;;7.34
64488;BMP280;50864;45.050;39.014;2022-11-11T10:09:30;102497.47;;;7.36
64488;BMP280;50864;45.050;39.014;2022-11-11T10:12:16;102502.84;;;7.29
64488;BMP280;50864;45.050;39.014;2022-11-11T10:15:03;102495.72;;;7.23
64488;BMP280;50864;45.050;39.014;2022-11-11T10:20:54;102495.78;;;7.41
64488;BMP280;50864;45.050;39.014;2022-11-11T10:23:38;102490.63;;;7.46
64488;BMP280;50864;45.050;39.014;2022-11-11T10:26:44;102490.56;;;7.53
64488;BMP280;50864;45.050;39.014;2022-11-11T10:29:29;102497.09;;;7.57
64488;BMP280;50864;45.050;39.014;2022-11-11T10:32:21;102491.88;;;7.68
64488;BMP280;50864;45.050;39.014;2022-11-11T10:35:15;102487.53;;;7.74
64488;BMP280;50864;45.050;39.014;2022-11-11T10:40:53;102481.66;;;7.65
64488;BMP280;50864;45.050;39.014;2022-11-11T10:43:38;102489.50;;;7.60
64488;BMP280;50864;45.050;39.014;2022-11-11T10:46:27;102493.59;;;7.56
64488;BMP280;50864;45.050;39.014;2022-11-11T10:49:15;102490.81;;;7.51
64488;BMP280;50864;45.050;39.014;2022-11-11T10:52:20;102484.78;;;7.56
64488;BMP280;50864;45.050;39.014;2022-11-11T10:55:21;102486.22;;;7.58
64488;BMP280;50864;45.050;39.014;2022-11-11T10:58:14;102484.09;;;7.67
64488;BMP280;50864;45.050;39.014;2022-11-11T11:00:59;102484.19;;;7.79
64488;BMP280;50864;45.050;39.014;2022-11-11T11:03:57;102470.63;;;7.87
64488;BMP280;50864;45.050;39.014;2022-11-11T11:06:43;102477.69;;;7.93
64488;BMP280;50864;45.050;39.014;2022-11-11T11:09:29;102477.91;;;7.91
64488;BMP280;50864;45.050;39.014;2022-11-11T11:15:03;102481.13;;;8.00
64488;BMP280;50864;45.050;39.014;2022-11-11T11:17:53;102478.44;;;8.00
64488;BMP280;50864;45.050;39.014;2022-11-11T11:20:53;102489.78;;;7.95
64488;BMP280;50864;45.050;39.014;2022-11-11T11:23:44;102498.09;;;7.87
64488;BMP280;50864;45.050;39.014;2022-11-11T11:26:41;102478.63;;;7.80
64488;BMP280;50864;45.050;39.014;2022-11-11T11:29:30;102494.16;;;7.90
64488;BMP280;50864;45.050;39.014;2022-11-11T11:32:16;102496.81;;;7.90
64488;BMP280;50864;45.050;39.014;2022-11-11T11:35:01;102485.59;;;7.81
64488;BMP280;50864;45.050;39.014;2022-11-11T11:37:48;102502.84;;;7.79
64488;BMP280;50864;45.050;39.014;2022-11-11T11:40:50;102498.41;;;7.73
64488;BMP280;50864;45.050;39.014;2022-11-11T11:43:35;102485.09;;;7.73
64488;BMP280;50864;45.050;39.014;2022-11-11T11:46:26;102496.16;;;7.76
64488;BMP280;50864;45.050;39.014;2022-11-11T11:52:04;102503.53;;;7.74
64488;BMP280;50864;45.050;39.014;2022-11-11T11:55:33;102508.56;;;7.82
64488;BMP280;50864;45.050;39.014;2022-11-11T11:58:04;102500.87;;;7.92
64488;BMP280;50864;45.050;39.014;2022-11-11T12:01:08;102503.88;;;8.02
64488;BMP280;50864;45.050;39.014;2022-11-11T12:06:45;102501.34;;;8.07
64488;BMP280;50864;45.050;39.014;2022-11-11T12:21:07;102493.09;;;7.66
64488;BMP280;50864;45.050;39.014;2022-11-11T12:24:02;102502.31;;;7.70
64488;BMP280;50864;45.050;39.014;2022-11-11T12:27:07;102501.72;;;7.68
64488;BMP280;50864;45.050;39.014;2022-11-11T12:44:14;102512.16;;;7.70
64488;BMP280;50864;45.050;39.014;2022-11-11T12:55:38;102508.75;;;7.62
64488;BMP280;50864;45.050;39.014;2022-11-11T13:05:10;102515.13;;;7.55
64488;BMP280;50864;45.050;39.014;2022-11-11T13:16:37;102526.50;;;7.44
64488;BMP280;50864;45.050;39.014;2022-11-11T13:24:56;102534.97;;;7.34
64488;BMP280;50864;45.050;39.014;2022-11-11T13:27:46;102527.19;;;7.33
64488;BMP280;50864;45.050;39.014;2022-11-11T13:33:21;102532.59;;;7.26
64488;BMP280;50864;45.050;39.014;2022-11-11T13:36:08;102536.50;;;7.17
64488;BMP280;50864;45.050;39.014;2022-11-11T13:38:56;102542.09;;;7.09
64488;BMP280;50864;45.050;39.014;2022-11-11T13:41:41;102545.22;;;6.99
64488;BMP280;50864;45.050;39.014;2022-11-11T13:44:27;102540.94;;;6.92
64488;BMP280;50864;45.050;39.014;2022-11-11T13:47:20;102546.50;;;6.83
64488;BMP280;50864;45.050;39.014;2022-11-11T13:50:10;102544.06;;;6.75
64488;BMP280;50864;45.050;39.014;2022-11-11T13:52:58;102547.78;;;6.68
64488;BMP280;50864;45.050;39.014;2022-11-11T13:55:43;102542.50;;;6.61
64488;BMP280;50864;45.050;39.014;2022-11-11T13:58:38;102547.00;;;6.54
64488;BMP280;50864;45.050;39.014;2022-11-11T14:01:24;102539.88;;;6.48
64488;BMP280;50864;45.050;39.014;2022-11-11T14:04:16;102546.62;;;6.44
64488;BMP280;50864;45.050;39.014;2022-11-11T14:07:00;102540.50;;;6.43
64488;BMP280;50864;45.050;39.014;2022-11-11T14:09:58;102550.09;;;6.44
64488;BMP280;50864;45.050;39.014;2022-11-11T14:15:40;102540.47;;;6.50
64488;BMP280;50864;45.050;39.014;2022-11-11T14:21:09;102547.63;;;6.50
64488;BMP280;50864;45.050;39.014;2022-11-11T14:23:54;102556.66;;;6.49
64488;BMP280;50864;45.050;39.014;2022-11-11T14:26:38;102552.34;;;6.48
64488;BMP280;50864;45.050;39.014;2022-11-11T14:29:23;102554.81;;;6.42
64488;BMP280;50864;45.050;39.014;2022-11-11T14:35:08;102557.28;;;6.37
64488;BMP280;50864;45.050;39.014;2022-11-11T14:38:06;102558.53;;;6.35
64488;BMP280;50864;45.050;39.014;2022-11-11T14:41:29;102558.91;;;6.32
64488;BMP280;50864;45.050;39.014;2022-11-11T14:49:53;102579.37;;;6.25
64488;BMP280;50864;45.050;39.014;2022-11-11T14:52:38;102577.53;;;6.25
64488;BMP280;50864;45.050;39.014;2022-11-11T14:55:30;102577.34;;;6.27
64488;BMP280;50864;45.050;39.014;2022-11-11T14:58:20;102576.53;;;6.26
64488;BMP280;50864;45.050;39.014;2022-11-11T15:01:14;102579.37;;;6.25
64488;BMP280;50864;45.050;39.014;2022-11-11T15:04:03;102590.44;;;6.22
64488;BMP280;50864;45.050;39.014;2022-11-11T15:15:25;102581.03;;;6.13
64488;BMP280;50864;45.050;39.014;2022-11-11T15:21:12;102581.22;;;6.18
64488;BMP280;50864;45.050;39.014;2022-11-11T15:27:07;102589.81;;;6.26
64488;BMP280;50864;45.050;39.014;2022-11-11T15:29:56;102584.88;;;6.30
64488;BMP280;50864;45.050;39.014;2022-11-11T15:35:45;102592.03;;;6.36
64488;BMP280;50864;45.050;39.014;2022-11-11T15:38:40;102601.25;;;6.40
64488;BMP280;50864;45.050;39.014;2022-11-11T15:41:25;102609.66;;;6.43
64488;BMP280;50864;45.050;39.014;2022-11-11T15:44:17;102608.22;;;6.48
64488;BMP280;50864;45.050;39.014;2022-11-11T15:47:03;102612.09;;;6.52
64488;BMP280;50864;45.050;39.014;2022-11-11T15:49:48;102614.53;;;6.53
64488;BMP280;50864;45.050;39.014;2022-11-11T15:52:36;102610.03;;;6.54
64488;BMP280;50864;45.050;39.014;2022-11-11T15:55:24;102612.09;;;6.52
64488;BMP280;50864;45.050;39.014;2022-11-11T15:58:16;102614.94;;;6.50
64488;BMP280;50864;45.050;39.014;2022-11-11T16:01:02;102604.53;;;6.49
64488;BMP280;50864;45.050;39.014;2022-11-11T16:03:49;102604.31;;;6.50
64488;BMP280;50864;45.050;39.014;2022-11-11T16:06:34;102604.72;;;6.54
64488;BMP280;50864;45.050;39.014;2022-11-11T16:09:26;102609.63;;;6.57
64488;BMP280;50864;45.050;39.014;2022-11-11T16:12:11;102607.78;;;6.57
64488;BMP280;50864;45.050;39.014;2022-11-11T16:14:57;102598.78;;;6.58
64488;BMP280;50864;45.050;39.014;2022-11-11T16:17:43;102601.03;;;6.61
64488;BMP280;50864;45.050;39.014;2022-11-11T16:20:30;102609.81;;;6.68
64488;BMP280;50864;45.050;39.014;2022-11-11T16:23:17;102613.09;;;6.64
64488;BMP280;50864;45.050;39.014;2022-11-11T16:26:02;102611.25;;;6.58
64488;BMP280;50864;45.050;39.014;2022-11-11T16:28:51;102623.97;;;6.56
64488;BMP280;50864;45.050;39.014;2022-11-11T16:31:37;102631.72;;;6.57
64488;BMP280;50864;45.050;39.014;2022-11-11T16:34:23;102625.19;;;6.60
64488;BMP280;50864;45.050;39.014;2022-11-11T16:37:07;102628.41;;;6.62
64488;BMP280;50864;45.050;39.014;2022-11-11T16:39:52;102635.38;;;6.63
64488;BMP280;50864;45.050;39.014;2022-11-11T16:42:36;102628.41;;;6.62
64488;BMP280;50864;45.050;39.014;2022-11-11T16:45:21;102627.41;;;6.63
64488;BMP280;50864;45.050;39.014;2022-11-11T16:48:15;102630.50;;;6.60
64488;BMP280;50864;45.050;39.014;2022-11-11T16:53:56;102626.00;;;6.47
64488;BMP280;50864;45.050;39.014;2022-11-11T16:56:52;102625.00;;;6.41
64488;BMP280;50864;45.050;39.014;2022-11-11T16:59:40;102618.62;;;6.36
64488;BMP280;50864;45.050;39.014;2022-11-11T17:02:25;102621.09;;;6.37
64488;BMP280;50864;45.050;39.014;2022-11-11T17:05:10;102613.31;;;6.36
64488;BMP280;50864;45.050;39.014;2022-11-11T17:07:54;102618.62;;;6.36
64488;BMP280;50864;45.050;39.014;2022-11-11T17:10:38;102619.25;;;6.38
64488;BMP280;50864;45.050;39.014;2022-11-11T17:13:23;102612.72;;;6.40
64488;BMP280;50864;45.050;39.014;2022-11-11T17:16:08;102612.72;;;6.40
64488;BMP280;50864;45.050;39.014;2022-11-11T17:18:52;102614.56;;;6.40
64488;BMP280;50864;45.050;39.014;2022-11-11T17:21:36;102616.78;;;6.36
64488;BMP280;50864;45.050;39.014;2022-11-11T17:24:20;102618.25;;;6.32
64488;BMP280;50864;45.050;39.014;2022-11-11T17:27:05;102626.41;;;6.31
64488;BMP280;50864;45.050;39.014;2022-11-11T17:29:49;102627.44;;;6.30
64488;BMP280;50864;45.050;39.014;2022-11-11T17:32:33;102628.25;;;6.30
64488;BMP280;50864;45.050;39.014;2022-11-11T17:35:17;102634.19;;;6.32
64488;BMP280;50864;45.050;39.014;2022-11-11T17:38:01;102626.03;;;6.34
64488;BMP280;50864;45.050;39.014;2022-11-11T17:40:45;102634.19;;;6.32
64488;BMP280;50864;45.050;39.014;2022-11-11T17:43:30;102625.59;;;6.30
64488;BMP280;50864;45.050;39.014;2022-11-11T17:46:14;102635.22;;;6.31
64488;BMP280;50864;45.050;39.014;2022-11-11T17:49:10;102639.72;;;6.31